createdAt,value
2022-09-28T00:01:57.916Z,7.91
2022-09-28T00:04:24.393Z,7.80
2022-09-28T00:06:50.769Z,7.79
2022-09-28T00:09:17.770Z,7.86
2022-09-28T00:11:45.997Z,7.72
2022-09-28T00:14:12.846Z,7.82
2022-09-28T00:16:43.454Z,7.76
2022-09-28T00:19:10.961Z,7.79
2022-09-28T00:21:43.056Z,7.85
2022-09-28T00:24:17.293Z,7.84
2022-09-28T00:26:54.643Z,7.81
2022-09-28T00:29:32.278Z,7.78
2022-09-28T00:32:21.511Z,7.79
2022-09-28T00:34:48.882Z,7.70
2022-09-28T00:37:15.309Z,7.75
2022-09-28T00:39:41.766Z,7.74
2022-09-28T00:42:21.834Z,7.73
2022-09-28T00:44:56.102Z,7.61
2022-09-28T00:47:37.885Z,7.65
2022-09-28T00:50:09.272Z,7.68
2022-09-28T00:53:00.565Z,7.59
2022-09-28T00:55:33.667Z,7.63
2022-09-28T00:58:01.804Z,7.68
2022-09-28T01:00:28.409Z,7.63
2022-09-28T01:02:54.875Z,7.58
2022-09-28T01:05:22.377Z,7.68
2022-09-28T01:07:48.768Z,7.69
2022-09-28T01:10:15.331Z,7.67
2022-09-28T01:12:41.677Z,7.66
2022-09-28T01:15:08.362Z,7.68
2022-09-28T01:17:37.521Z,7.69
2022-09-28T01:20:22.465Z,7.67
2022-09-28T01:23:19.038Z,7.57
2022-09-28T01:25:55.818Z,7.56
2022-09-28T01:28:26.297Z,7.58
2022-09-28T01:31:05.475Z,7.51
2022-09-28T01:33:38.251Z,7.40
2022-09-28T01:36:27.715Z,7.43
2022-09-28T01:39:03.332Z,7.47
2022-09-28T01:41:31.525Z,7.45
2022-09-28T01:44:02.808Z,7.45
2022-09-28T01:46:34.446Z,7.41
2022-09-28T01:49:16.474Z,7.39
2022-09-28T01:52:06.811Z,7.38
2022-09-28T01:54:44.352Z,7.35
2022-09-28T01:57:16.761Z,7.41
2022-09-28T01:59:49.564Z,7.37
2022-09-28T02:02:18.821Z,7.35
2022-09-28T02:04:52.308Z,7.26
2022-09-28T02:07:32.141Z,7.20
2022-09-28T02:10:02.888Z,7.47
2022-09-28T02:12:43.534Z,7.39
2022-09-28T02:15:20.662Z,7.46
2022-09-28T02:17:47.471Z,7.51
2022-09-28T02:20:14.020Z,7.44
2022-09-28T02:22:51.327Z,7.45
2022-09-28T02:25:39.188Z,7.44
2022-09-28T02:28:07.284Z,7.41
2022-09-28T02:30:36.419Z,7.40
2022-09-28T02:33:11.077Z,7.28
2022-09-28T02:35:40.357Z,7.34
2022-09-28T02:38:06.913Z,7.35
2022-09-28T02:40:34.859Z,7.38
2022-09-28T02:43:23.799Z,7.38
2022-09-28T02:46:34.392Z,7.22
2022-09-28T02:49:22.154Z,7.17
2022-09-28T02:52:04.289Z,7.21
2022-09-28T02:54:58.173Z,7.23
2022-09-28T02:58:01.534Z,7.23
2022-09-28T03:00:32.845Z,7.27
2022-09-28T03:03:08.103Z,7.22
2022-09-28T03:05:45.968Z,7.19
2022-09-28T03:08:30.428Z,7.16
2022-09-28T03:11:10.275Z,7.18
2022-09-28T03:13:37.073Z,7.16
2022-09-28T03:16:15.277Z,7.22
2022-09-28T03:18:41.690Z,7.23
2022-09-28T03:21:09.570Z,7.23
2022-09-28T03:23:36.006Z,7.23
2022-09-28T03:26:03.755Z,7.23
2022-09-28T03:28:30.298Z,7.30
2022-09-28T03:30:56.878Z,7.29
2022-09-28T03:33:23.340Z,7.37
2022-09-28T03:35:50.576Z,7.38
2022-09-28T03:38:20.661Z,7.49
2022-09-28T03:41:02.869Z,7.46
2022-09-28T03:43:31.123Z,7.53
2022-09-28T03:45:59.797Z,7.52
2022-09-28T03:48:36.116Z,7.49
2022-09-28T03:51:04.155Z,7.42
2022-09-28T03:53:30.608Z,7.49
2022-09-28T03:56:05.584Z,7.54
2022-09-28T03:58:33.260Z,7.55
2022-09-28T04:01:05.049Z,7.45
2022-09-28T04:03:31.724Z,7.50
2022-09-28T04:05:58.367Z,7.52
2022-09-28T04:08:25.183Z,7.50
2022-09-28T04:10:51.660Z,7.51
2022-09-28T04:13:21.033Z,7.44
2022-09-28T04:15:53.272Z,7.47
2022-09-28T04:18:23.602Z,7.48
2022-09-28T04:21:06.490Z,7.50
2022-09-28T04:23:34.572Z,7.55
2022-09-28T04:26:01.460Z,7.60
2022-09-28T04:28:46.906Z,7.57
2022-09-28T04:31:17.064Z,7.54
2022-09-28T04:33:43.699Z,7.63
2022-09-28T04:36:10.973Z,7.55
2022-09-28T04:38:55.246Z,7.60
2022-09-28T04:41:22.504Z,7.61
2022-09-28T04:43:49.609Z,7.62
2022-09-28T04:46:16.430Z,7.63
2022-09-28T04:48:45.645Z,7.58
2022-09-28T04:51:12.036Z,7.63
2022-09-28T04:53:38.474Z,7.67
2022-09-28T04:56:07.489Z,7.67
2022-09-28T04:58:37.495Z,7.70
2022-09-28T05:01:08.326Z,7.60
2022-09-28T05:03:34.791Z,7.69
2022-09-28T05:06:01.529Z,7.68
2022-09-28T05:08:27.918Z,7.68
2022-09-28T05:11:01.979Z,7.71
2022-09-28T05:13:28.904Z,7.70
2022-09-28T05:15:59.694Z,7.69
2022-09-28T05:18:28.217Z,7.63
2022-09-28T05:20:54.645Z,7.66
2022-09-28T05:23:21.004Z,7.58
2022-09-28T05:25:47.388Z,7.61
2022-09-28T05:28:13.907Z,7.52
2022-09-28T05:30:42.916Z,7.54
2022-09-28T05:33:09.570Z,7.59
2022-09-28T05:35:39.446Z,7.47
2022-09-28T05:38:05.817Z,7.57
2022-09-28T05:40:32.509Z,7.60
2022-09-28T05:43:01.136Z,7.55
2022-09-28T05:45:29.003Z,7.56
2022-09-28T05:47:56.608Z,7.56
2022-09-28T05:50:23.387Z,7.57
2022-09-28T05:53:03.801Z,7.52
2022-09-28T05:55:30.541Z,7.63
2022-09-28T05:58:06.154Z,7.58
2022-09-28T06:00:33.443Z,7.59
2022-09-28T06:03:05.395Z,7.65
2022-09-28T06:05:36.093Z,7.61
2022-09-28T06:08:05.061Z,7.59
2022-09-28T06:10:32.219Z,7.62
2022-09-28T06:12:59.383Z,7.62
2022-09-28T06:15:27.976Z,7.62
2022-09-28T06:18:02.102Z,7.72
2022-09-28T06:20:31.040Z,7.67
2022-09-28T06:22:57.458Z,7.76
2022-09-28T06:25:27.440Z,7.78
2022-09-28T06:27:57.451Z,7.66
2022-09-28T06:30:27.001Z,7.84
2022-09-28T06:32:55.040Z,7.89
2022-09-28T06:35:22.239Z,7.81
2022-09-28T06:37:48.773Z,7.83
2022-09-28T06:40:15.341Z,7.89
2022-09-28T06:42:41.821Z,7.91
2022-09-28T06:45:08.544Z,8.01
2022-09-28T06:47:35.169Z,7.99
2022-09-28T06:50:01.557Z,8.07
2022-09-28T06:52:27.913Z,8.12
2022-09-28T06:54:54.269Z,8.17
2022-09-28T06:57:20.697Z,8.21
2022-09-28T06:59:47.061Z,8.25
2022-09-28T07:02:16.410Z,8.29
2022-09-28T07:04:43.259Z,8.32
2022-09-28T07:07:11.396Z,8.41
2022-09-28T07:09:42.234Z,8.55
2022-09-28T07:12:13.314Z,8.52
2022-09-28T07:14:47.711Z,8.60
2022-09-28T07:17:15.082Z,8.70
2022-09-28T07:19:41.897Z,8.78
2022-09-28T07:22:08.266Z,8.90
2022-09-28T07:24:34.630Z,8.99
2022-09-28T07:27:04.424Z,9.13
2022-09-28T07:29:30.799Z,9.29
2022-09-28T07:31:57.162Z,9.39
2022-09-28T07:34:23.934Z,9.58
2022-09-28T07:36:51.907Z,9.70
2022-09-28T07:39:18.260Z,9.76
2022-09-28T07:41:44.658Z,9.87
2022-09-28T07:44:11.203Z,10.08
2022-09-28T07:46:38.037Z,10.15
2022-09-28T07:49:10.014Z,10.19
2022-09-28T07:51:38.899Z,10.36
2022-09-28T07:54:06.484Z,10.49
2022-09-28T07:56:34.834Z,10.59
2022-09-28T07:59:01.265Z,10.64
2022-09-28T08:01:27.980Z,10.72
2022-09-28T08:03:56.117Z,10.79
2022-09-28T08:06:23.193Z,10.94
2022-09-28T08:08:50.285Z,11.06
2022-09-28T08:11:20.490Z,11.25
2022-09-28T08:13:48.133Z,11.43
2022-09-28T08:16:14.706Z,11.44
2022-09-28T08:18:41.150Z,11.45
2022-09-28T08:21:26.112Z,11.56
2022-09-28T08:23:53.063Z,11.76
2022-09-28T08:26:29.072Z,11.83
2022-09-28T08:29:20.735Z,11.83
2022-09-28T08:32:01.538Z,11.78
2022-09-28T08:34:28.872Z,12.13
2022-09-28T08:36:59.075Z,12.35
2022-09-28T08:39:25.727Z,12.52
2022-09-28T08:42:17.281Z,12.66
2022-09-28T08:44:47.081Z,12.70
2022-09-28T08:47:35.052Z,12.61
2022-09-28T08:50:03.538Z,12.91
2022-09-28T08:52:40.093Z,13.09
2022-09-28T08:55:31.619Z,13.02
2022-09-28T08:58:02.897Z,13.06
2022-09-28T09:00:38.087Z,13.24
2022-09-28T09:03:11.510Z,13.30
2022-09-28T09:06:06.604Z,13.48
2022-09-28T09:08:57.434Z,13.88
2022-09-28T09:11:34.154Z,14.24
2022-09-28T09:14:38.578Z,14.43
2022-09-28T09:17:32.232Z,14.43
2022-09-28T09:20:16.866Z,14.19
2022-09-28T09:23:20.806Z,14.08
2022-09-28T09:25:48.689Z,14.30
2022-09-28T09:28:43.538Z,14.27
2022-09-28T09:31:22.901Z,14.47
2022-09-28T09:34:15.651Z,14.27
2022-09-28T09:37:03.380Z,14.36
2022-09-28T09:39:45.487Z,14.29
2022-09-28T09:42:22.046Z,14.55
2022-09-28T09:45:00.626Z,14.69
2022-09-28T09:47:42.882Z,14.38
2022-09-28T09:50:16.290Z,14.72
2022-09-28T09:52:57.075Z,14.73
2022-09-28T09:55:44.223Z,14.99
2022-09-28T09:58:38.905Z,15.25
2022-09-28T10:01:13.232Z,15.27
2022-09-28T10:03:44.512Z,15.00
2022-09-28T10:06:27.445Z,14.87
2022-09-28T10:09:12.442Z,14.83
2022-09-28T10:11:49.809Z,14.59
2022-09-28T10:14:17.458Z,14.62
2022-09-28T10:16:44.892Z,14.58
2022-09-28T10:19:13.162Z,14.65
2022-09-28T10:21:41.170Z,14.70
2022-09-28T10:24:15.146Z,14.66
2022-09-28T10:26:44.364Z,14.66
2022-09-28T10:29:56.653Z,14.53
2022-09-28T10:32:28.001Z,14.74
2022-09-28T10:35:12.432Z,14.65
2022-09-28T10:38:06.187Z,14.81
2022-09-28T10:40:56.122Z,14.76
2022-09-28T10:43:35.668Z,14.83
2022-09-28T10:46:06.029Z,14.86
2022-09-28T10:48:49.881Z,14.65
2022-09-28T10:51:16.300Z,14.53
2022-09-28T10:53:42.788Z,14.59
2022-09-28T10:56:20.957Z,14.61
2022-09-28T10:58:47.390Z,14.78
2022-09-28T11:01:19.605Z,14.80
2022-09-28T11:03:55.145Z,14.74
2022-09-28T11:06:41.727Z,14.73
2022-09-28T11:09:29.691Z,14.84
2022-09-28T11:11:58.273Z,15.03
2022-09-28T11:14:39.613Z,14.96
2022-09-28T11:17:40.391Z,15.13
2022-09-28T11:20:27.937Z,15.24
2022-09-28T11:22:54.693Z,15.17
2022-09-28T11:25:26.912Z,15.26
2022-09-28T11:27:53.186Z,15.32
2022-09-28T11:30:23.949Z,15.34
2022-09-28T11:32:50.880Z,15.48
2022-09-28T11:35:24.911Z,15.61
2022-09-28T11:38:07.304Z,15.84
2022-09-28T11:41:23.233Z,16.04
2022-09-28T11:43:55.595Z,16.06
2022-09-28T11:46:37.206Z,15.97
2022-09-28T11:49:11.387Z,15.64
2022-09-28T11:51:40.317Z,15.66
2022-09-28T11:54:18.648Z,15.55
2022-09-28T11:56:48.027Z,14.92
2022-09-28T11:59:31.576Z,14.73
2022-09-28T12:02:02.105Z,13.88
2022-09-28T12:04:33.225Z,13.69
2022-09-28T12:07:11.286Z,13.48
2022-09-28T12:09:50.542Z,13.39
2022-09-28T12:12:43.771Z,13.10
2022-09-28T12:15:17.132Z,13.14
2022-09-28T12:17:48.457Z,13.11
2022-09-28T12:20:30.695Z,12.93
2022-09-28T12:23:00.103Z,12.90
2022-09-28T12:25:28.676Z,12.80
2022-09-28T12:28:01.542Z,12.73
2022-09-28T12:30:33.499Z,12.69
2022-09-28T12:33:09.185Z,12.74
2022-09-28T12:36:09.689Z,12.62
2022-09-28T12:38:54.135Z,12.53
2022-09-28T12:41:42.372Z,12.53
2022-09-28T12:44:29.090Z,12.53
2022-09-28T12:47:05.976Z,12.66
2022-09-28T12:50:36.303Z,12.75
2022-09-28T12:52:47.375Z,12.85
2022-09-28T12:55:22.999Z,13.01
2022-09-28T12:58:21.568Z,13.25
2022-09-28T13:01:14.224Z,13.22
2022-09-28T13:03:49.784Z,13.50
2022-09-28T13:06:34.875Z,13.50
2022-09-28T13:09:12.308Z,13.76
2022-09-28T13:12:03.501Z,14.07
2022-09-28T13:14:49.015Z,14.95
2022-09-28T13:17:42.512Z,16.12
2022-09-28T13:20:23.329Z,16.88
2022-09-28T13:22:54.679Z,17.65
2022-09-28T13:25:22.054Z,18.75
2022-09-28T13:27:53.512Z,19.35
2022-09-28T13:30:20.104Z,19.62
2022-09-28T13:32:47.475Z,19.46
2022-09-28T13:35:15.195Z,19.37
2022-09-28T13:37:41.651Z,18.71
2022-09-28T13:40:08.326Z,17.99
2022-09-28T13:42:53.821Z,17.30
2022-09-28T13:45:20.120Z,17.11
2022-09-28T13:48:21.966Z,16.60
2022-09-28T13:51:09.635Z,16.11
2022-09-28T13:54:03.762Z,15.81
2022-09-28T13:56:52.764Z,15.42
2022-09-28T13:59:27.665Z,15.28
2022-09-28T14:02:09.407Z,15.06
2022-09-28T14:04:57.797Z,14.71
2022-09-28T14:10:16.609Z,14.24
2022-09-28T14:12:51.791Z,13.98
2022-09-28T14:15:30.271Z,13.73
2022-09-28T14:18:24.121Z,13.48
2022-09-28T14:21:29.497Z,13.01
2022-09-28T14:24:18.852Z,12.69
2022-09-28T14:27:03.080Z,12.54
2022-09-28T14:29:36.139Z,12.36
2022-09-28T14:32:22.437Z,12.18
2022-09-28T14:34:59.102Z,12.07
2022-09-28T14:37:56.363Z,11.77
2022-09-28T14:40:49.949Z,11.75
2022-09-28T14:43:24.348Z,11.65
2022-09-28T14:45:53.442Z,11.67
2022-09-28T14:48:21.889Z,11.75
2022-09-28T14:50:49.872Z,11.43
2022-09-28T14:53:22.049Z,11.40
2022-09-28T14:55:55.648Z,11.36
2022-09-28T14:58:25.562Z,11.34
2022-09-28T15:00:54.713Z,11.10
2022-09-28T15:03:21.759Z,11.18
2022-09-28T15:05:49.231Z,11.14
2022-09-28T15:08:20.198Z,10.98
2022-09-28T15:10:48.673Z,11.04
2022-09-28T15:13:21.283Z,10.99
2022-09-28T15:15:50.764Z,11.01
2022-09-28T15:18:27.480Z,11.01
2022-09-28T15:20:54.164Z,10.97
2022-09-28T15:23:34.423Z,10.77
2022-09-28T15:26:01.025Z,10.85
2022-09-28T15:28:27.396Z,10.84
2022-09-28T15:31:01.787Z,10.76
2022-09-28T15:33:51.969Z,10.87
2022-09-28T15:36:21.843Z,10.80
2022-09-28T15:38:59.044Z,10.58
2022-09-28T15:41:25.988Z,10.73
2022-09-28T15:44:08.333Z,10.67
2022-09-28T15:46:36.555Z,10.62
2022-09-28T15:49:04.675Z,10.66
2022-09-28T15:51:32.382Z,10.61
2022-09-28T15:54:04.106Z,10.55
2022-09-28T15:56:31.492Z,10.56
2022-09-28T15:59:13.142Z,10.43
2022-09-28T16:01:41.118Z,10.40
2022-09-28T16:04:33.592Z,10.31
2022-09-28T16:07:20.988Z,10.24
2022-09-28T16:10:12.811Z,10.28
2022-09-28T16:12:54.145Z,10.31
2022-09-28T16:15:26.616Z,10.41
2022-09-28T16:18:00.533Z,10.58
2022-09-28T16:20:29.384Z,10.75
2022-09-28T16:22:57.614Z,10.95
2022-09-28T16:25:26.013Z,11.21
2022-09-28T16:27:54.993Z,11.31
2022-09-28T16:30:29.988Z,11.28
2022-09-28T16:32:56.426Z,11.41
2022-09-28T16:35:32.701Z,11.38
2022-09-28T16:38:16.380Z,11.34
2022-09-28T16:40:52.561Z,11.30
2022-09-28T16:43:26.889Z,11.29
2022-09-28T16:46:02.031Z,11.32
2022-09-28T16:48:30.637Z,11.24
2022-09-28T16:50:57.839Z,11.24
2022-09-28T16:53:43.784Z,11.26
2022-09-28T16:56:10.765Z,11.16
2022-09-28T16:58:38.979Z,11.01
2022-09-28T17:01:09.409Z,11.04
2022-09-28T17:03:35.994Z,10.94
2022-09-28T17:06:08.701Z,10.94
2022-09-28T17:08:35.603Z,10.91
2022-09-28T17:11:22.853Z,10.92
2022-09-28T17:13:48.683Z,10.86
2022-09-28T17:16:18.290Z,10.88
2022-09-28T17:18:45.908Z,10.90
2022-09-28T17:21:15.780Z,10.86
2022-09-28T17:23:46.367Z,10.88
2022-09-28T17:26:23.200Z,10.81
2022-09-28T17:28:49.677Z,10.82
2022-09-28T17:31:16.546Z,10.85
2022-09-28T17:33:43.491Z,10.85
2022-09-28T17:36:13.235Z,10.88
2022-09-28T17:38:39.971Z,10.86
2022-09-28T17:41:06.359Z,10.84
2022-09-28T17:43:32.749Z,10.84
2022-09-28T17:45:59.409Z,10.72
2022-09-28T17:48:25.781Z,10.80
2022-09-28T17:50:52.157Z,10.81
2022-09-28T17:53:18.621Z,10.78
2022-09-28T17:55:44.986Z,10.73
2022-09-28T17:58:18.552Z,10.75
2022-09-28T18:00:51.493Z,10.60
2022-09-28T18:03:20.275Z,10.63
2022-09-28T18:05:58.201Z,10.65
2022-09-28T18:08:24.688Z,10.59
2022-09-28T18:10:51.159Z,10.55
2022-09-28T18:13:17.612Z,10.62
2022-09-28T18:15:44.246Z,10.62
2022-09-28T18:18:12.497Z,10.55
2022-09-28T18:20:39.420Z,10.53
2022-09-28T18:23:05.786Z,10.54
2022-09-28T18:25:32.154Z,10.57
2022-09-28T18:27:59.941Z,10.55
2022-09-28T18:30:27.510Z,10.51
2022-09-28T18:32:54.144Z,10.56
2022-09-28T18:35:23.018Z,10.49
2022-09-28T18:37:50.235Z,10.59
2022-09-28T18:40:16.643Z,10.55
2022-09-28T18:42:43.093Z,10.60
2022-09-28T18:45:14.199Z,10.60
2022-09-28T18:47:40.649Z,10.51
2022-09-28T18:50:07.679Z,10.57
2022-09-28T18:52:38.431Z,10.56
2022-09-28T18:55:05.992Z,10.51
2022-09-28T18:57:35.269Z,10.52
2022-09-28T19:00:03.567Z,10.49
2022-09-28T19:02:30.189Z,10.57
2022-09-28T19:04:56.673Z,10.59
2022-09-28T19:07:23.212Z,10.60
2022-09-28T19:09:50.074Z,10.62
2022-09-28T19:12:16.983Z,10.62
2022-09-28T19:14:43.463Z,10.64
2022-09-28T19:17:10.157Z,10.66
2022-09-28T19:19:36.521Z,10.56
2022-09-28T19:22:02.969Z,10.60
2022-09-28T19:24:29.376Z,10.57
2022-09-28T19:26:56.520Z,10.50
2022-09-28T19:29:22.945Z,10.55
2022-09-28T19:31:49.789Z,10.57
2022-09-28T19:34:16.365Z,10.50
2022-09-28T19:36:43.128Z,10.56
2022-09-28T19:39:13.763Z,10.58
2022-09-28T19:41:44.700Z,10.68
2022-09-28T19:44:24.514Z,10.65
2022-09-28T19:46:56.172Z,10.62
2022-09-28T19:49:24.031Z,10.57
2022-09-28T19:52:11.696Z,10.53
2022-09-28T19:54:38.507Z,10.60
2022-09-28T19:57:07.604Z,10.63
2022-09-28T19:59:35.452Z,10.60
2022-09-28T20:02:02.072Z,10.52
2022-09-28T20:04:28.848Z,10.40
2022-09-28T20:06:55.230Z,10.34
2022-09-28T20:09:21.574Z,10.37
2022-09-28T20:11:48.501Z,10.45
2022-09-28T20:14:18.596Z,10.32
2022-09-28T20:16:46.183Z,10.17
2022-09-28T20:19:12.963Z,10.18
2022-09-28T20:21:39.326Z,10.23
2022-09-28T20:24:05.856Z,10.23
2022-09-28T20:26:37.569Z,10.13
2022-09-28T20:29:05.109Z,10.17
2022-09-28T20:31:31.549Z,10.18
2022-09-28T20:33:57.997Z,10.15
2022-09-28T20:36:25.009Z,10.14
2022-09-28T20:38:53.307Z,10.09
2022-09-28T20:41:22.065Z,10.02
2022-09-28T20:43:53.140Z,9.88
2022-09-28T20:46:21.180Z,9.80
2022-09-28T20:48:49.929Z,9.75
2022-09-28T20:51:18.574Z,9.70
2022-09-28T20:53:52.466Z,9.65
2022-09-28T20:56:23.866Z,9.63
2022-09-28T20:58:51.062Z,9.59
2022-09-28T21:01:29.837Z,9.56
2022-09-28T21:04:01.562Z,9.54
2022-09-28T21:06:30.236Z,9.47
2022-09-28T21:08:56.996Z,9.51
2022-09-28T21:11:25.330Z,9.46
2022-09-28T21:13:52.886Z,9.46
2022-09-28T21:16:19.257Z,9.34
2022-09-28T21:18:45.748Z,9.33
2022-09-28T21:21:14.383Z,9.36
2022-09-28T21:23:40.916Z,9.24
2022-09-28T21:26:10.217Z,9.29
2022-09-28T21:28:36.930Z,9.28
2022-09-28T21:31:05.628Z,9.26
2022-09-28T21:33:32.317Z,9.15
2022-09-28T21:36:03.766Z,9.14
2022-09-28T21:38:30.381Z,9.22
2022-09-28T21:40:57.956Z,9.22
2022-09-28T21:43:25.762Z,9.27
2022-09-28T21:45:53.076Z,9.22
2022-09-28T21:48:20.780Z,9.10
2022-09-28T21:51:05.024Z,9.01
2022-09-28T21:53:33.960Z,9.07
2022-09-28T21:56:01.365Z,9.01
2022-09-28T21:58:30.129Z,8.97
2022-09-28T22:01:08.154Z,8.94
2022-09-28T22:03:36.158Z,8.92
2022-09-28T22:06:03.927Z,8.87
2022-09-28T22:08:30.300Z,8.82
2022-09-28T22:11:31.117Z,8.77
2022-09-28T22:13:59.178Z,8.83
2022-09-28T22:16:28.108Z,8.79
2022-09-28T22:18:54.827Z,8.70
2022-09-28T22:21:26.709Z,8.75
2022-09-28T22:23:53.405Z,8.85
2022-09-28T22:26:23.374Z,8.83
2022-09-28T22:28:50.899Z,8.57
2022-09-28T22:31:18.738Z,8.73
2022-09-28T22:33:45.124Z,8.77
2022-09-28T22:36:11.771Z,8.74
2022-09-28T22:38:38.131Z,8.70
2022-09-28T22:41:04.504Z,8.80
2022-09-28T22:43:31.040Z,8.76
2022-09-28T22:46:18.740Z,8.67
2022-09-28T22:48:49.787Z,8.65
2022-09-28T22:51:16.827Z,8.64
2022-09-28T22:53:43.319Z,8.64
2022-09-28T22:56:12.598Z,8.62
2022-09-28T22:58:42.835Z,8.49
2022-09-28T23:01:17.781Z,8.56
2022-09-28T23:03:44.788Z,8.56
2022-09-28T23:06:12.831Z,8.51
2022-09-28T23:08:39.473Z,8.54
2022-09-28T23:11:06.314Z,8.56
2022-09-28T23:13:32.911Z,8.49
2022-09-28T23:16:04.897Z,8.42
2022-09-28T23:18:33.667Z,8.43
2022-09-28T23:21:02.220Z,8.39
2022-09-28T23:23:28.898Z,8.36
2022-09-28T23:25:55.864Z,8.29
2022-09-28T23:28:23.678Z,8.18
2022-09-28T23:30:50.115Z,8.18
2022-09-28T23:33:17.959Z,8.17
2022-09-28T23:35:44.856Z,8.11
2022-09-28T23:38:13.406Z,8.07
2022-09-28T23:40:40.907Z,8.03
2022-09-28T23:43:07.961Z,7.95
2022-09-28T23:45:34.395Z,7.98
2022-09-28T23:48:00.924Z,7.97
2022-09-28T23:50:27.367Z,7.95
2022-09-28T23:52:53.836Z,7.91
2022-09-28T23:55:20.298Z,7.98
2022-09-28T23:57:46.703Z,7.93
